createdAt,value
2019-01-27T00:02:28.227Z,98780.19
2019-01-27T00:05:01.686Z,98779.75
2019-01-27T00:07:32.993Z,98769.01
2019-01-27T00:10:04.010Z,98767.54
2019-01-27T00:12:35.083Z,98756.80
2019-01-27T00:15:06.592Z,98755.56
2019-01-27T00:17:37.822Z,98750.06
2019-01-27T00:20:10.587Z,98742.33
2019-01-27T00:22:41.575Z,98738.95
2019-01-27T00:25:12.591Z,98736.62
2019-01-27T00:27:43.958Z,98731.42
2019-01-27T00:30:21.716Z,98730.19
2019-01-27T00:32:52.739Z,98715.81
2019-01-27T00:35:23.739Z,98710.26
2019-01-27T00:37:54.749Z,98699.08
2019-01-27T00:40:26.828Z,98697.72
2019-01-27T00:42:58.144Z,98698.29
2019-01-27T00:45:29.509Z,98706.97
2019-01-27T00:48:00.497Z,98694.83
2019-01-27T00:50:32.113Z,98690.52
2019-01-27T00:53:03.995Z,98681.61
2019-01-27T00:55:34.942Z,98683.20
2019-01-27T00:58:05.965Z,98682.74
2019-01-27T01:00:37.021Z,98675.50
2019-01-27T01:03:08.027Z,98681.19
2019-01-27T01:05:39.322Z,98680.69
2019-01-27T01:08:10.469Z,98671.92
2019-01-27T01:10:43.007Z,98671.88
2019-01-27T01:13:16.512Z,98665.88
2019-01-27T01:15:47.817Z,98669.45
2019-01-27T01:18:18.909Z,98652.13
2019-01-27T01:20:50.228Z,98652.13
2019-01-27T01:23:21.567Z,98648.36
2019-01-27T01:25:52.517Z,98646.19
2019-01-27T01:28:23.830Z,98638.86
2019-01-27T01:30:55.190Z,98638.41
2019-01-27T01:33:26.157Z,98628.56
2019-01-27T01:35:57.204Z,98631.20
2019-01-27T01:38:28.703Z,98627.19
2019-01-27T01:40:59.665Z,98615.16
2019-01-27T01:43:30.680Z,98608.94
2019-01-27T01:46:02.029Z,98608.67
2019-01-27T01:48:33.002Z,98596.84
2019-01-27T01:51:05.034Z,98593.45
2019-01-27T01:53:37.380Z,98591.83
2019-01-27T01:56:08.850Z,98589.81
2019-01-27T01:58:39.843Z,98577.22
2019-01-27T02:01:10.866Z,98574.20
2019-01-27T02:03:42.177Z,98569.07
2019-01-27T02:06:13.146Z,98567.00
2019-01-27T02:08:44.154Z,98552.25
2019-01-27T02:11:15.495Z,98547.94
2019-01-27T02:13:46.767Z,98544.62
2019-01-27T02:16:17.760Z,98537.05
2019-01-27T02:18:48.733Z,98532.39
2019-01-27T02:21:19.755Z,98524.38
2019-01-27T02:23:50.937Z,98529.22
2019-01-27T02:26:21.920Z,98519.81
2019-01-27T02:28:52.886Z,98509.44
2019-01-27T02:31:24.942Z,98505.81
2019-01-27T02:33:55.930Z,98501.80
2019-01-27T02:36:26.907Z,98498.20
2019-01-27T02:38:58.254Z,98484.30
2019-01-27T02:41:29.648Z,98484.73
2019-01-27T02:44:00.953Z,98470.86
2019-01-27T02:46:32.301Z,98471.86
2019-01-27T02:49:03.558Z,98467.52
2019-01-27T02:51:35.190Z,98459.31
2019-01-27T02:54:06.592Z,98453.19
2019-01-27T02:56:37.526Z,98446.37
2019-01-27T02:59:08.922Z,98441.17
2019-01-27T03:01:40.067Z,98435.34
2019-01-27T03:04:11.564Z,98435.11
2019-01-27T03:06:54.651Z,98418.80
2019-01-27T03:09:34.492Z,98415.67
2019-01-27T03:12:05.992Z,98413.66
2019-01-27T03:14:36.911Z,98414.38
2019-01-27T03:17:08.787Z,98414.61
2019-01-27T03:19:39.750Z,98404.31
2019-01-27T03:22:10.681Z,98398.67
2019-01-27T03:24:41.959Z,98391.92
2019-01-27T03:27:13.378Z,98389.48
2019-01-27T03:29:44.308Z,98387.77
2019-01-27T03:32:15.503Z,98382.66
2019-01-27T03:34:46.749Z,98370.44
2019-01-27T03:37:17.676Z,98366.42
2019-01-27T03:39:48.714Z,98366.73
2019-01-27T03:42:19.954Z,98362.61
2019-01-27T03:44:51.199Z,98353.85
2019-01-27T03:47:22.175Z,98347.52
2019-01-27T03:49:53.131Z,98343.69
2019-01-27T03:52:24.097Z,98341.38
2019-01-27T03:54:55.197Z,98340.81
2019-01-27T03:57:26.203Z,98329.38
2019-01-27T03:59:57.158Z,98331.12
2019-01-27T04:02:28.471Z,98323.98
2019-01-27T04:04:59.446Z,98320.57
2019-01-27T04:07:30.499Z,98308.03
2019-01-27T04:10:01.849Z,98303.40
2019-01-27T04:12:33.123Z,98300.45
2019-01-27T04:15:04.137Z,98300.45
2019-01-27T04:17:35.124Z,98295.84
2019-01-27T04:20:08.512Z,98289.06
2019-01-27T04:22:39.992Z,98291.98
2019-01-27T04:25:11.401Z,98280.07
2019-01-27T04:27:42.635Z,98282.06
2019-01-27T04:30:35.375Z,98279.73
2019-01-27T04:33:07.342Z,98276.23
2019-01-27T04:35:38.672Z,98263.91
2019-01-27T04:38:10.170Z,98262.20
2019-01-27T04:40:41.082Z,98269.53
2019-01-27T04:43:12.486Z,98262.59
2019-01-27T04:45:43.491Z,98262.50
2019-01-27T04:48:14.747Z,98252.52
2019-01-27T04:50:45.682Z,98249.92
2019-01-27T04:53:16.787Z,98250.06
2019-01-27T04:55:48.718Z,98246.09
2019-01-27T04:58:19.694Z,98242.97
2019-01-27T05:00:50.670Z,98238.75
2019-01-27T05:03:37.187Z,98241.67
2019-01-27T05:06:08.615Z,98237.45
2019-01-27T05:08:39.548Z,98231.83
2019-01-27T05:11:10.547Z,98232.80
2019-01-27T05:13:41.899Z,98230.81
2019-01-27T05:16:12.896Z,98228.98
2019-01-27T05:18:44.312Z,98224.25
2019-01-27T05:21:15.929Z,98217.94
2019-01-27T05:23:47.196Z,98217.14
2019-01-27T05:26:18.432Z,98217.23
2019-01-27T05:28:50.971Z,98207.71
2019-01-27T05:31:22.219Z,98195.96
2019-01-27T05:33:53.181Z,98200.23
2019-01-27T05:36:24.162Z,98189.16
2019-01-27T05:38:55.146Z,98188.71
2019-01-27T05:41:26.094Z,98179.34
2019-01-27T05:43:57.408Z,98175.78
2019-01-27T05:46:28.364Z,98170.77
2019-01-27T05:48:59.297Z,98173.47
2019-01-27T05:51:30.698Z,98169.91
2019-01-27T05:54:01.999Z,98161.34
2019-01-27T05:56:33.290Z,98165.64
2019-01-27T05:59:04.293Z,98161.26
2019-01-27T06:01:36.244Z,98151.86
2019-01-27T06:04:07.479Z,98150.91
2019-01-27T06:06:39.110Z,98150.91
2019-01-27T06:09:10.637Z,98156.69
2019-01-27T06:11:41.985Z,98152.30
2019-01-27T06:14:13.435Z,98149.27
2019-01-27T06:16:44.405Z,98144.50
2019-01-27T06:19:15.710Z,98139.34
2019-01-27T06:21:46.714Z,98125.14
2019-01-27T06:24:17.982Z,98120.05
2019-01-27T06:26:49.122Z,98123.03
2019-01-27T06:29:20.438Z,98113.87
2019-01-27T06:31:52.004Z,98115.75
2019-01-27T06:34:23.024Z,98113.92
2019-01-27T06:36:54.658Z,98110.39
2019-01-27T06:39:25.627Z,98104.95
2019-01-27T06:41:56.892Z,98104.45
2019-01-27T06:44:28.369Z,98098.82
2019-01-27T06:46:59.365Z,98099.67
2019-01-27T06:49:30.320Z,98098.88
2019-01-27T06:52:01.724Z,98101.94
2019-01-27T06:54:32.784Z,98090.19
2019-01-27T06:57:03.953Z,98089.42
2019-01-27T06:59:39.970Z,98087.30
2019-01-27T07:02:29.506Z,98085.69
2019-01-27T07:05:12.164Z,98074.73
2019-01-27T07:08:01.992Z,98077.00
2019-01-27T07:10:49.066Z,98077.47
2019-01-27T07:13:35.233Z,98071.28
2019-01-27T07:16:37.578Z,98070.76
2019-01-27T07:19:27.402Z,98059.45
2019-01-27T07:22:15.790Z,98069.11
2019-01-27T07:25:00.905Z,98059.16
2019-01-27T07:27:42.555Z,98057.95
2019-01-27T07:30:34.294Z,98065.63
2019-01-27T07:33:23.268Z,98061.34
2019-01-27T07:36:13.091Z,98052.39
2019-01-27T07:39:09.493Z,98058.57
2019-01-27T07:41:51.485Z,98057.95
2019-01-27T07:44:37.280Z,98054.53
2019-01-27T07:47:25.722Z,98052.23
2019-01-27T07:50:08.547Z,98046.14
2019-01-27T07:53:02.546Z,98033.72
2019-01-27T07:55:59.183Z,98034.48
2019-01-27T07:58:45.437Z,98028.44
2019-01-27T08:01:54.095Z,98024.41
2019-01-27T08:04:41.591Z,98030.15
2019-01-27T08:07:30.402Z,98030.06
2019-01-27T08:10:18.979Z,98030.91
2019-01-27T08:13:07.963Z,98016.78
2019-01-27T08:16:01.057Z,98011.73
2019-01-27T08:18:49.617Z,98007.84
2019-01-27T08:21:45.534Z,98005.16
2019-01-27T08:24:35.750Z,98001.36
2019-01-27T08:27:31.560Z,98011.35
2019-01-27T08:30:30.854Z,98016.59
2019-01-27T08:33:38.893Z,98007.08
2019-01-27T08:36:26.973Z,97991.24
2019-01-27T08:39:15.347Z,97993.52
2019-01-27T08:42:16.369Z,97993.33
2019-01-27T08:44:55.956Z,97988.41
2019-01-27T08:47:27.312Z,97992.09
2019-01-27T08:49:58.271Z,97990.50
2019-01-27T08:52:29.198Z,97975.50
2019-01-27T08:55:00.253Z,97983.97
2019-01-27T08:57:31.488Z,97984.72
2019-01-27T09:00:02.447Z,97978.50
2019-01-27T09:02:51.760Z,97976.50
2019-01-27T09:05:41.559Z,97964.72
2019-01-27T09:08:18.498Z,97960.25
2019-01-27T09:11:17.636Z,97962.33
2019-01-27T09:14:10.565Z,97964.03
2019-01-27T09:17:09.725Z,97953.13
2019-01-27T09:19:58.640Z,97953.44
2019-01-27T09:22:51.961Z,97946.33
2019-01-27T09:25:47.250Z,97950.11
2019-01-27T09:28:38.811Z,97947.71
2019-01-27T09:31:23.218Z,97944.34
2019-01-27T09:34:28.091Z,97944.19
2019-01-27T09:37:20.597Z,97945.34
2019-01-27T09:40:10.422Z,97942.45
2019-01-27T09:43:02.648Z,97936.35
2019-01-27T09:45:57.761Z,97939.34
2019-01-27T09:48:41.446Z,97934.53
2019-01-27T09:51:37.533Z,97933.45
2019-01-27T09:54:33.294Z,97931.05
2019-01-27T09:57:21.644Z,97932.41
2019-01-27T10:00:09.471Z,97935.98
2019-01-27T10:02:45.004Z,97923.73
2019-01-27T10:05:31.042Z,97921.45
2019-01-27T10:08:27.009Z,97920.78
2019-01-27T10:11:16.891Z,97912.89
2019-01-27T10:14:13.561Z,97916.80
2019-01-27T10:17:03.777Z,97921.05
2019-01-27T10:20:05.357Z,97918.02
2019-01-27T10:22:53.911Z,97916.53
2019-01-27T10:25:36.832Z,97914.38
2019-01-27T10:28:32.563Z,97915.83
2019-01-27T10:31:21.092Z,97908.22
2019-01-27T10:34:09.489Z,97904.89
2019-01-27T10:36:53.420Z,97904.47
2019-01-27T10:39:43.328Z,97896.09
2019-01-27T10:42:25.945Z,97896.30
2019-01-27T10:45:14.444Z,97897.83
2019-01-27T10:48:13.313Z,97890.27
2019-01-27T10:51:15.397Z,97884.27
2019-01-27T10:54:05.321Z,97879.53
2019-01-27T10:56:57.673Z,97876.81
2019-01-27T10:59:50.494Z,97870.24
2019-01-27T11:02:52.122Z,97872.03
2019-01-27T11:05:33.451Z,97867.30
2019-01-27T11:08:20.423Z,97869.39
2019-01-27T11:11:13.574Z,97859.03
2019-01-27T11:14:18.509Z,97856.03
2019-01-27T11:17:03.751Z,97854.84
2019-01-27T11:19:43.348Z,97854.97
2019-01-27T11:22:45.616Z,97859.39
2019-01-27T11:25:35.160Z,97850.16
2019-01-27T11:28:24.081Z,97838.20
2019-01-27T11:31:22.757Z,97838.53
2019-01-27T11:34:27.717Z,97829.82
2019-01-27T11:37:16.478Z,97828.72
2019-01-27T11:40:06.279Z,97827.56
2019-01-27T11:43:08.319Z,97826.23
2019-01-27T11:46:01.148Z,97820.14
2019-01-27T11:48:51.468Z,97816.41
2019-01-27T11:51:53.918Z,97809.39
2019-01-27T11:54:25.047Z,97798.00
2019-01-27T11:56:55.992Z,97794.92
2019-01-27T11:59:27.152Z,97797.34
2019-01-27T12:01:58.354Z,97794.66
2019-01-27T12:04:29.472Z,97789.50
2019-01-27T12:07:00.756Z,97794.11
2019-01-27T12:09:32.196Z,97785.74
2019-01-27T12:12:03.483Z,97786.80
2019-01-27T12:14:34.741Z,97784.39
2019-01-27T12:17:06.099Z,97782.99
2019-01-27T12:19:40.282Z,97781.83
2019-01-27T12:22:09.989Z,97769.81
2019-01-27T12:24:41.038Z,97770.75
2019-01-27T12:27:12.188Z,97766.59
2019-01-27T12:29:43.471Z,97761.47
2019-01-27T12:32:14.511Z,97761.77
2019-01-27T12:34:46.159Z,97752.89
2019-01-27T12:37:17.507Z,97755.56
2019-01-27T12:39:49.183Z,97752.86
2019-01-27T12:42:20.281Z,97750.80
2019-01-27T12:44:51.257Z,97749.56
2019-01-27T12:47:22.706Z,97752.16
2019-01-27T12:49:54.157Z,97741.98
2019-01-27T12:52:25.089Z,97752.86
2019-01-27T12:54:56.296Z,97747.34
2019-01-27T12:57:39.577Z,97739.58
2019-01-27T13:00:30.764Z,97735.31
2019-01-27T13:03:19.542Z,97742.89
2019-01-27T13:06:12.845Z,97727.95
2019-01-27T13:08:52.682Z,97722.24
2019-01-27T13:11:38.565Z,97719.88
2019-01-27T13:14:21.655Z,97712.77
2019-01-27T13:17:07.558Z,97722.48
2019-01-27T13:19:55.032Z,97713.37
2019-01-27T13:22:34.493Z,97717.94
2019-01-27T13:25:18.660Z,97720.55
2019-01-27T13:28:02.069Z,97725.54
2019-01-27T13:30:49.931Z,97716.27
2019-01-27T13:33:33.976Z,97711.91
2019-01-27T13:42:48.128Z,97704.70
2019-01-27T13:45:22.105Z,97703.06
2019-01-27T13:47:53.136Z,97698.70
2019-01-27T13:50:24.251Z,97700.39
2019-01-27T13:52:55.230Z,97704.97
2019-01-27T13:55:29.329Z,97701.91
2019-01-27T13:58:00.765Z,97694.84
2019-01-27T14:00:34.734Z,97690.32
2019-01-27T14:03:05.764Z,97701.14
2019-01-27T14:05:36.917Z,97698.68
2019-01-27T14:08:08.053Z,97694.13
2019-01-27T14:10:38.984Z,97692.83
2019-01-27T14:13:10.000Z,97695.19
2019-01-27T14:15:40.974Z,97687.91
2019-01-27T14:18:12.008Z,97697.12
2019-01-27T14:20:43.043Z,97700.23
2019-01-27T14:23:14.343Z,97694.17
2019-01-27T14:25:45.287Z,97696.87
2019-01-27T14:28:16.725Z,97691.10
2019-01-27T14:30:48.076Z,97699.56
2019-01-27T14:33:20.954Z,97696.06
2019-01-27T14:35:51.949Z,97684.88
2019-01-27T14:38:22.925Z,97680.04
2019-01-27T14:40:54.205Z,97685.34
2019-01-27T14:43:27.439Z,97682.50
2019-01-27T14:45:58.732Z,97684.48
2019-01-27T14:48:30.273Z,97683.58
2019-01-27T14:51:01.482Z,97682.64
2019-01-27T14:53:32.961Z,97679.13
2019-01-27T14:56:03.899Z,97679.84
2019-01-27T14:58:35.203Z,97680.83
2019-01-27T15:01:06.219Z,97684.43
2019-01-27T15:03:39.790Z,97680.04
2019-01-27T15:06:11.137Z,97683.24
2019-01-27T15:08:45.901Z,97678.13
2019-01-27T15:11:14.712Z,97676.06
2019-01-27T15:13:46.112Z,97684.33
2019-01-27T15:16:17.413Z,97674.81
2019-01-27T15:18:48.349Z,97672.50
2019-01-27T15:21:26.712Z,97680.28
2019-01-27T15:23:57.670Z,97678.92
2019-01-27T15:26:28.975Z,97676.16
2019-01-27T15:29:00.229Z,97675.90
2019-01-27T15:31:31.547Z,97676.44
2019-01-27T15:34:04.538Z,97676.58
2019-01-27T15:36:35.150Z,97681.20
2019-01-27T15:39:10.705Z,97672.69
2019-01-27T15:41:41.734Z,97671.13
2019-01-27T15:44:12.856Z,97671.02
2019-01-27T15:46:43.841Z,97678.05
2019-01-27T15:49:14.767Z,97674.73
2019-01-27T15:51:45.791Z,97677.56
2019-01-27T15:54:16.735Z,97683.80
2019-01-27T15:56:47.700Z,97688.68
2019-01-27T15:59:19.091Z,97684.52
2019-01-27T16:01:50.860Z,97685.87
2019-01-27T16:04:21.876Z,97695.36
2019-01-27T16:06:53.328Z,97695.00
2019-01-27T16:09:24.333Z,97690.96
2019-01-27T16:11:55.372Z,97698.23
2019-01-27T16:14:26.781Z,97689.27
2019-01-27T16:16:57.764Z,97690.51
2019-01-27T16:19:29.145Z,97697.13
2019-01-27T16:22:00.509Z,97691.19
2019-01-27T16:24:35.320Z,97691.68
2019-01-27T16:27:06.328Z,97691.68
2019-01-27T16:30:00.870Z,97688.05
2019-01-27T16:32:35.999Z,97693.37
2019-01-27T16:35:13.043Z,97693.90
2019-01-27T16:37:44.059Z,97691.03
2019-01-27T16:40:16.987Z,97685.69
2019-01-27T16:42:48.086Z,97688.41
2019-01-27T16:45:19.100Z,97694.91
2019-01-27T16:47:50.516Z,97692.03
2019-01-27T16:50:21.499Z,97693.85
2019-01-27T16:52:52.502Z,97695.36
2019-01-27T16:55:23.501Z,97697.10
2019-01-27T16:57:54.460Z,97695.93
2019-01-27T17:00:27.942Z,97700.00
2019-01-27T17:03:00.897Z,97689.20
2019-01-27T17:05:32.107Z,97697.81
2019-01-27T17:08:03.124Z,97697.69
2019-01-27T17:10:34.412Z,97697.81
2019-01-27T17:13:05.730Z,97701.70
2019-01-27T17:15:37.123Z,97705.20
2019-01-27T17:18:08.038Z,97705.23
2019-01-27T17:20:39.330Z,97708.03
2019-01-27T17:23:10.951Z,97701.59
2019-01-27T17:25:41.972Z,97704.75
2019-01-27T17:28:13.728Z,97708.20
2019-01-27T17:30:45.060Z,97704.87
2019-01-27T17:33:15.998Z,97713.17
2019-01-27T17:35:47.253Z,97707.47
2019-01-27T17:38:18.325Z,97701.98
2019-01-27T17:40:49.325Z,97710.17
2019-01-27T17:43:20.578Z,97702.62
2019-01-27T17:45:51.610Z,97705.67
2019-01-27T17:48:22.598Z,97700.16
2019-01-27T17:50:53.562Z,97704.69
2019-01-27T17:53:24.609Z,97701.61
2019-01-27T17:55:55.595Z,97703.02
2019-01-27T17:59:11.271Z,97703.99
2019-01-27T18:01:55.322Z,97706.59
2019-01-27T18:05:00.309Z,97697.18
2019-01-27T18:07:46.251Z,97702.81
2019-01-27T18:10:42.330Z,97707.23
2019-01-27T18:13:44.809Z,97705.20
2019-01-27T18:16:15.868Z,97699.89
2019-01-27T18:18:46.823Z,97707.23
2019-01-27T18:21:17.781Z,97713.70
2019-01-27T18:23:49.511Z,97708.89
2019-01-27T18:26:20.902Z,97715.78
2019-01-27T18:28:51.992Z,97718.83
2019-01-27T18:31:23.052Z,97713.88
2019-01-27T18:33:53.914Z,97719.27
2019-01-27T18:36:24.878Z,97714.48
2019-01-27T18:38:55.896Z,97720.97
2019-01-27T18:41:26.860Z,97721.75
2019-01-27T18:43:57.888Z,97726.16
2019-01-27T18:46:29.323Z,97727.05
2019-01-27T18:49:00.272Z,97727.16
2019-01-27T18:51:31.568Z,97725.83
2019-01-27T18:54:31.530Z,97733.20
2019-01-27T18:57:13.656Z,97738.28
2019-01-27T18:59:55.693Z,97734.39
2019-01-27T19:02:44.801Z,97735.23
2019-01-27T19:05:33.845Z,97737.83
2019-01-27T19:08:20.567Z,97739.98
2019-01-27T19:11:00.366Z,97742.91
2019-01-27T19:13:47.906Z,97741.49
2019-01-27T19:16:24.978Z,97747.20
2019-01-27T19:19:18.251Z,97749.28
2019-01-27T19:22:11.183Z,97750.58
2019-01-27T19:25:10.014Z,97742.80
2019-01-27T19:28:02.461Z,97751.87
2019-01-27T19:30:47.333Z,97756.95
2019-01-27T19:33:40.264Z,97758.88
2019-01-27T19:36:33.194Z,97755.31
2019-01-27T19:39:12.281Z,97754.47
2019-01-27T19:42:02.395Z,97754.31
2019-01-27T19:44:55.118Z,97757.35
2019-01-27T19:47:46.969Z,97756.83
2019-01-27T19:50:39.782Z,97762.98
2019-01-27T19:53:39.014Z,97769.02
2019-01-27T19:56:30.724Z,97768.06
2019-01-27T19:59:16.388Z,97767.95
2019-01-27T20:02:21.087Z,97783.70
2019-01-27T20:05:10.989Z,97772.80
2019-01-27T20:07:59.520Z,97781.55
2019-01-27T20:11:01.567Z,97783.34
2019-01-27T20:13:39.328Z,97787.59
2019-01-27T20:16:28.095Z,97792.09
2019-01-27T20:19:23.550Z,97796.90
2019-01-27T20:22:12.812Z,97795.64
2019-01-27T20:25:05.460Z,97796.20
2019-01-27T20:27:43.534Z,97802.24
2019-01-27T20:30:46.564Z,97808.72
2019-01-27T20:33:39.343Z,97808.77
2019-01-27T20:36:38.239Z,97807.58
2019-01-27T20:39:27.913Z,97805.84
2019-01-27T20:42:18.166Z,97807.69
2019-01-27T20:45:06.633Z,97812.87
2019-01-27T20:47:54.929Z,97808.72
2019-01-27T20:50:43.100Z,97817.39
2019-01-27T20:53:35.992Z,97816.98
2019-01-27T20:56:18.511Z,97820.98
2019-01-27T20:59:10.932Z,97818.39
2019-01-27T21:01:53.028Z,97824.77
2019-01-27T21:04:47.648Z,97832.44
2019-01-27T21:07:36.082Z,97825.62
2019-01-27T21:10:20.150Z,97829.73
2019-01-27T21:13:25.245Z,97838.18
2019-01-27T21:16:03.183Z,97843.55
2019-01-27T21:18:43.410Z,97852.28
2019-01-27T21:21:15.607Z,97862.67
2019-01-27T21:23:47.335Z,97865.08
2019-01-27T21:26:18.284Z,97867.08
2019-01-27T21:28:49.295Z,97873.16
2019-01-27T21:31:20.304Z,97874.56
2019-01-27T21:33:51.260Z,97873.84
2019-01-27T21:36:22.249Z,97878.36
2019-01-27T21:38:55.424Z,97886.17
2019-01-27T21:41:26.786Z,97891.32
2019-01-27T21:43:57.733Z,97893.23
2019-01-27T21:46:29.407Z,97888.97
2019-01-27T21:49:00.794Z,97893.81
2019-01-27T21:51:35.283Z,97898.59
2019-01-27T21:54:07.536Z,97900.41
2019-01-27T21:56:38.821Z,97906.03
2019-01-27T21:59:09.787Z,97905.48
2019-01-27T22:01:40.808Z,97916.19
2019-01-27T22:04:12.197Z,97917.21
2019-01-27T22:06:43.822Z,97921.45
2019-01-27T22:09:14.950Z,97926.52
2019-01-27T22:11:45.919Z,97930.20
2019-01-27T22:14:17.357Z,97929.80
2019-01-27T22:16:48.993Z,97924.02
2019-01-27T22:19:19.957Z,97928.22
2019-01-27T22:21:50.958Z,97935.78
2019-01-27T22:24:22.304Z,97940.02
2019-01-27T22:26:53.292Z,97939.58
2019-01-27T22:29:24.599Z,97942.05
2019-01-27T22:31:56.467Z,97945.73
2019-01-27T22:34:27.857Z,97945.39
2019-01-27T22:36:59.749Z,97949.47
2019-01-27T22:39:31.094Z,97950.80
2019-01-27T22:42:02.323Z,97947.30
2019-01-27T22:44:33.652Z,97961.23
2019-01-27T22:47:05.241Z,97968.66
2019-01-27T22:49:36.484Z,97969.95
2019-01-27T22:52:07.765Z,97974.27
2019-01-27T22:54:39.481Z,97971.11
2019-01-27T22:57:10.789Z,97968.45
2019-01-27T22:59:42.033Z,97969.31
2019-01-27T23:02:13.782Z,97963.46
2019-01-27T23:04:45.038Z,97969.33
2019-01-27T23:07:16.275Z,97973.13
2019-01-27T23:09:47.888Z,97978.84
2019-01-27T23:12:19.123Z,97976.66
2019-01-27T23:14:50.327Z,97979.72
2019-01-27T23:17:21.591Z,97989.94
2019-01-27T23:19:53.130Z,97996.91
2019-01-27T23:22:27.492Z,97993.38
2019-01-27T23:24:58.775Z,97994.77
2019-01-27T23:27:30.364Z,98000.44
2019-01-27T23:30:01.921Z,98002.12
2019-01-27T23:32:35.040Z,98011.70
2019-01-27T23:35:06.625Z,98014.38
2019-01-27T23:37:38.146Z,98017.73
2019-01-27T23:40:09.577Z,98023.70
2019-01-27T23:42:40.730Z,98022.84
2019-01-27T23:45:12.390Z,98032.41
2019-01-27T23:47:43.654Z,98033.26
2019-01-27T23:50:15.327Z,98033.18
2019-01-27T23:52:46.544Z,98030.67
2019-01-27T23:55:17.849Z,98036.45
2019-01-27T23:57:49.076Z,98030.25
